createdAt,value
2018-05-09T00:02:22.373Z,100691.81
2018-05-09T00:04:50.459Z,100696.36
2018-05-09T00:07:19.244Z,100694.37
2018-05-09T00:09:47.322Z,100695.58
2018-05-09T00:12:15.419Z,100695.77
2018-05-09T00:14:43.555Z,100695.28
2018-05-09T00:17:11.647Z,100689.05
2018-05-09T00:19:39.715Z,100690.27
2018-05-09T00:22:07.835Z,100690.00
2018-05-09T00:24:35.941Z,100694.73
2018-05-09T00:27:04.025Z,100694.70
2018-05-09T00:29:32.155Z,100690.86
2018-05-09T00:32:00.236Z,100694.69
2018-05-09T00:34:28.326Z,100692.60
2018-05-09T00:36:56.433Z,100696.97
2018-05-09T00:39:24.531Z,100694.47
2018-05-09T00:41:53.300Z,100701.39
2018-05-09T00:44:21.399Z,100695.47
2018-05-09T00:46:55.151Z,100692.59
2018-05-09T00:49:28.720Z,100691.34
2018-05-09T00:51:56.823Z,100698.86
2018-05-09T00:54:32.576Z,100703.46
2018-05-09T00:57:01.542Z,100704.19
2018-05-09T00:59:29.647Z,100714.57
2018-05-09T01:01:57.754Z,100713.47
2018-05-09T01:04:25.840Z,100711.48
2018-05-09T01:06:53.981Z,100699.91
2018-05-09T01:09:22.073Z,100693.48
2018-05-09T01:11:50.242Z,100697.13
2018-05-09T01:14:18.330Z,100707.61
2018-05-09T01:16:46.418Z,100708.11
2018-05-09T01:19:14.522Z,100711.03
2018-05-09T01:21:42.652Z,100714.41
2018-05-09T01:24:10.758Z,100713.20
2018-05-09T01:26:38.876Z,100714.46
2018-05-09T01:29:07.028Z,100707.02
2018-05-09T01:31:35.140Z,100710.17
2018-05-09T01:34:03.255Z,100708.11
2018-05-09T01:36:31.335Z,100721.20
2018-05-09T01:38:59.454Z,100717.83
2018-05-09T01:41:28.311Z,100716.61
2018-05-09T01:43:56.423Z,100711.50
2018-05-09T01:46:24.548Z,100707.34
2018-05-09T01:48:52.664Z,100709.47
2018-05-09T01:51:20.754Z,100692.50
2018-05-09T01:53:49.303Z,100689.80
2018-05-09T01:56:17.406Z,100693.86
2018-05-09T01:58:45.576Z,100701.45
2018-05-09T02:01:13.670Z,100697.13
2018-05-09T02:03:41.765Z,100698.02
2018-05-09T02:06:10.363Z,100712.68
2018-05-09T02:08:38.453Z,100711.59
2018-05-09T02:11:06.544Z,100706.31
2018-05-09T02:13:34.661Z,100715.33
2018-05-09T02:16:02.764Z,100712.16
2018-05-09T02:18:30.910Z,100719.81
2018-05-09T02:20:59.058Z,100722.53
2018-05-09T02:23:27.155Z,100737.09
2018-05-09T02:25:55.264Z,100734.11
2018-05-09T02:28:23.368Z,100736.49
2018-05-09T02:30:52.351Z,100725.53
2018-05-09T02:33:20.470Z,100724.20
2018-05-09T02:35:48.547Z,100721.70
2018-05-09T02:38:16.657Z,100722.31
2018-05-09T02:53:44.769Z,100711.03
2018-05-09T02:56:12.860Z,100713.88
2018-05-09T02:58:41.004Z,100714.43
2018-05-09T03:01:09.112Z,100710.49
2018-05-09T03:03:42.704Z,100713.31
2018-05-09T03:06:10.822Z,100709.41
2018-05-09T03:08:39.247Z,100714.97
2018-05-09T03:11:07.399Z,100719.84
2018-05-09T03:13:35.487Z,100709.34
2018-05-09T03:16:03.634Z,100721.33
2018-05-09T03:18:31.730Z,100712.91
2018-05-09T03:20:59.860Z,100729.54
2018-05-09T03:23:27.996Z,100723.16
2018-05-09T03:25:56.154Z,100713.38
2018-05-09T03:28:24.245Z,100719.03
2018-05-09T03:30:52.386Z,100707.45
2018-05-09T03:33:21.298Z,100700.95
2018-05-09T03:35:49.393Z,100709.94
2018-05-09T03:38:18.518Z,100709.70
2018-05-09T03:40:46.630Z,100704.29
2018-05-09T03:43:14.718Z,100703.03
2018-05-09T03:45:42.836Z,100701.39
2018-05-09T03:48:11.644Z,100697.27
2018-05-09T03:50:39.790Z,100707.61
2018-05-09T03:53:07.931Z,100701.93
2018-05-09T03:55:41.661Z,100708.70
2018-05-09T03:58:09.789Z,100706.89
2018-05-09T04:00:38.286Z,100710.41
2018-05-09T04:03:18.100Z,100718.56
2018-05-09T04:05:59.215Z,100721.22
2018-05-09T04:08:39.119Z,100721.03
2018-05-09T04:11:07.207Z,100721.81
2018-05-09T04:13:35.291Z,100717.52
2018-05-09T04:16:03.387Z,100716.91
2018-05-09T04:18:32.243Z,100721.02
2018-05-09T04:21:01.193Z,100721.02
2018-05-09T04:23:29.235Z,100715.73
2018-05-09T04:25:59.055Z,100713.61
2018-05-09T04:28:27.150Z,100706.98
2018-05-09T04:30:56.066Z,100702.87
2018-05-09T04:33:24.157Z,100706.02
2018-05-09T04:35:52.249Z,100706.60
2018-05-09T04:38:20.357Z,100712.03
2018-05-09T04:40:48.448Z,100709.54
2018-05-09T04:43:16.536Z,100709.78
2018-05-09T04:45:45.219Z,100698.98
2018-05-09T04:48:13.354Z,100700.63
2018-05-09T04:50:41.442Z,100700.42
2018-05-09T04:53:09.543Z,100704.35
2018-05-09T04:55:37.745Z,100712.86
2018-05-09T04:58:05.772Z,100711.81
2018-05-09T05:00:33.903Z,100710.08
2018-05-09T05:03:02.609Z,100705.42
2018-05-09T05:05:30.706Z,100709.16
2018-05-09T05:07:59.508Z,100715.69
2018-05-09T05:10:27.601Z,100717.98
2018-05-09T05:12:55.695Z,100716.60
2018-05-09T05:15:23.795Z,100716.05
2018-05-09T05:17:51.916Z,100708.17
2018-05-09T05:20:20.750Z,100697.30
2018-05-09T05:22:50.161Z,100702.44
2018-05-09T05:25:18.275Z,100695.56
2018-05-09T05:27:46.378Z,100698.59
2018-05-09T05:30:14.473Z,100698.30
2018-05-09T05:32:42.601Z,100698.22
2018-05-09T05:35:10.715Z,100700.42
2018-05-09T05:37:38.864Z,100694.65
2018-05-09T05:40:07.160Z,100694.80
2018-05-09T05:42:35.267Z,100687.11
2018-05-09T05:45:03.401Z,100684.48
2018-05-09T05:47:31.736Z,100681.39
2018-05-09T05:49:59.831Z,100681.81
2018-05-09T05:52:28.343Z,100681.76
2018-05-09T05:54:56.439Z,100679.41
2018-05-09T05:57:24.534Z,100679.98
2018-05-09T05:59:54.163Z,100682.14
2018-05-09T06:02:23.815Z,100682.42
2018-05-09T06:04:51.907Z,100680.19
2018-05-09T06:07:20.795Z,100701.81
2018-05-09T06:09:48.899Z,100710.16
2018-05-09T06:12:17.496Z,100698.60
2018-05-09T06:14:45.591Z,100701.78
2018-05-09T06:17:19.158Z,100709.16
2018-05-09T06:19:47.251Z,100716.28
2018-05-09T06:22:15.341Z,100713.05
2018-05-09T06:24:43.541Z,100705.22
2018-05-09T06:27:12.578Z,100711.03
2018-05-09T06:29:40.675Z,100713.97
2018-05-09T06:32:08.775Z,100709.09
2018-05-09T06:34:36.867Z,100710.68
2018-05-09T06:37:04.971Z,100711.75
2018-05-09T06:39:33.083Z,100703.17
2018-05-09T06:42:01.212Z,100707.30
2018-05-09T06:44:29.318Z,100714.87
2018-05-09T06:46:57.419Z,100718.98
2018-05-09T06:49:25.523Z,100714.48
2018-05-09T06:51:53.623Z,100717.24
2018-05-09T06:54:21.757Z,100707.95
2018-05-09T06:56:49.845Z,100709.60
2018-05-09T06:59:17.935Z,100710.92
2018-05-09T07:01:46.039Z,100706.54
2018-05-09T07:04:14.198Z,100712.31
2018-05-09T07:06:42.615Z,100713.27
2018-05-09T07:09:10.471Z,100718.35
2018-05-09T07:11:38.702Z,100723.86
2018-05-09T07:14:06.789Z,100724.45
2018-05-09T07:16:34.891Z,100720.81
2018-05-09T07:19:03.032Z,100720.86
2018-05-09T07:21:31.163Z,100725.39
2018-05-09T07:23:59.264Z,100729.39
2018-05-09T07:26:27.370Z,100729.69
2018-05-09T07:28:55.494Z,100730.05
2018-05-09T07:31:23.602Z,100731.70
2018-05-09T07:33:51.687Z,100734.95
2018-05-09T07:36:19.811Z,100745.63
2018-05-09T07:38:47.923Z,100742.13
2018-05-09T07:41:16.017Z,100744.72
2018-05-09T07:43:44.123Z,100745.50
2018-05-09T07:46:17.892Z,100747.97
2018-05-09T07:48:46.001Z,100739.63
2018-05-09T07:51:14.141Z,100741.89
2018-05-09T07:53:42.247Z,100738.64
2018-05-09T07:56:10.370Z,100738.91
2018-05-09T07:58:38.465Z,100740.16
2018-05-09T08:01:06.591Z,100738.28
2018-05-09T08:03:35.261Z,100729.64
2018-05-09T08:06:03.386Z,100730.02
2018-05-09T08:08:31.447Z,100730.23
2018-05-09T08:10:59.562Z,100729.58
2018-05-09T08:26:27.690Z,100741.87
2018-05-09T08:28:55.808Z,100742.47
2018-05-09T08:31:23.920Z,100743.62
2018-05-09T08:33:52.018Z,100743.38
2018-05-09T08:36:20.962Z,100743.84
2018-05-09T08:38:55.100Z,100742.41
2018-05-09T08:41:23.216Z,100745.72
2018-05-09T08:43:51.479Z,100751.84
2018-05-09T08:46:19.472Z,100748.52
2018-05-09T08:48:47.578Z,100747.97
2018-05-09T08:51:15.692Z,100749.20
2018-05-09T08:53:44.050Z,100746.08
2018-05-09T08:56:12.180Z,100748.09
2018-05-09T08:58:40.276Z,100750.77
2018-05-09T09:01:08.364Z,100746.13
2018-05-09T09:03:36.564Z,100752.19
2018-05-09T09:06:04.632Z,100750.23
2018-05-09T09:08:32.741Z,100751.27
2018-05-09T09:11:06.518Z,100750.88
2018-05-09T09:13:34.616Z,100743.19
2018-05-09T09:16:02.737Z,100736.42
2018-05-09T09:18:30.876Z,100740.45
2018-05-09T09:20:58.918Z,100738.04
2018-05-09T09:23:27.037Z,100743.89
2018-05-09T09:25:55.138Z,100742.73
2018-05-09T09:28:23.233Z,100740.16
2018-05-09T09:30:51.354Z,100745.24
2018-05-09T09:33:19.441Z,100748.70
2018-05-09T09:35:47.543Z,100750.92
2018-05-09T09:38:21.084Z,100747.35
2018-05-09T09:40:49.246Z,100744.91
2018-05-09T09:43:17.674Z,100745.09
2018-05-09T09:45:45.751Z,100762.75
2018-05-09T09:48:19.376Z,100761.23
2018-05-09T09:50:48.134Z,100764.39
2018-05-09T09:53:16.246Z,100765.36
2018-05-09T09:55:44.330Z,100767.63
2018-05-09T09:58:13.276Z,100763.27
2018-05-09T10:00:41.377Z,100763.12
2018-05-09T10:03:09.480Z,100760.87
2018-05-09T10:05:37.596Z,100759.22
2018-05-09T10:08:05.780Z,100758.61
2018-05-09T10:10:34.418Z,100760.18
2018-05-09T10:13:02.536Z,100755.64
2018-05-09T10:15:30.671Z,100755.47
2018-05-09T10:17:58.808Z,100761.28
2018-05-09T10:20:27.198Z,100749.94
2018-05-09T10:22:55.295Z,100757.69
2018-05-09T10:25:24.438Z,100757.92
2018-05-09T10:27:52.554Z,100760.16
2018-05-09T10:30:20.807Z,100760.26
2018-05-09T10:32:50.512Z,100754.03
2018-05-09T10:35:18.632Z,100769.56
2018-05-09T10:37:47.526Z,100760.30
2018-05-09T10:40:15.636Z,100755.97
2018-05-09T10:42:43.962Z,100756.48
2018-05-09T10:45:12.068Z,100762.47
2018-05-09T10:47:45.654Z,100762.19
2018-05-09T10:50:13.768Z,100761.63
2018-05-09T10:52:42.462Z,100766.98
2018-05-09T10:55:10.595Z,100750.78
2018-05-09T10:57:38.740Z,100753.09
2018-05-09T11:00:06.847Z,100749.55
2018-05-09T11:02:35.208Z,100753.25
2018-05-09T11:05:03.305Z,100751.27
2018-05-09T11:07:31.365Z,100753.83
2018-05-09T11:09:59.478Z,100748.39
2018-05-09T11:12:27.605Z,100747.52
2018-05-09T11:14:55.662Z,100746.67
2018-05-09T11:17:23.765Z,100744.73
2018-05-09T11:19:52.551Z,100745.67
2018-05-09T11:22:20.656Z,100737.16
2018-05-09T11:24:48.744Z,100733.45
2018-05-09T11:27:17.977Z,100730.03
2018-05-09T11:29:46.076Z,100735.70
2018-05-09T11:32:14.192Z,100739.91
2018-05-09T11:34:43.193Z,100740.86
2018-05-09T11:37:17.018Z,100736.48
2018-05-09T11:39:45.080Z,100741.84
2018-05-09T11:42:13.193Z,100738.25
2018-05-09T11:44:41.499Z,100738.39
2018-05-09T11:47:09.579Z,100746.06
2018-05-09T11:49:37.694Z,100738.55
2018-05-09T11:52:05.820Z,100743.27
2018-05-09T11:54:33.918Z,100735.36
2018-05-09T11:57:02.077Z,100737.77
2018-05-09T11:59:35.562Z,100736.80
2018-05-09T12:02:03.712Z,100732.01
2018-05-09T12:04:31.817Z,100731.99
2018-05-09T12:06:59.910Z,100732.78
2018-05-09T12:09:28.025Z,100726.98
2018-05-09T12:11:56.123Z,100726.12
2018-05-09T12:14:24.234Z,100729.90
2018-05-09T12:16:52.322Z,100725.78
2018-05-09T12:19:26.059Z,100724.40
2018-05-09T12:21:54.169Z,100723.17
2018-05-09T12:24:22.272Z,100728.63
2018-05-09T12:26:50.399Z,100719.54
2018-05-09T12:29:18.798Z,100725.42
2018-05-09T12:31:47.811Z,100733.22
2018-05-09T12:34:15.930Z,100734.34
2018-05-09T12:36:44.047Z,100728.28
2018-05-09T12:39:12.421Z,100718.12
2018-05-09T12:41:40.511Z,100720.39
2018-05-09T12:44:08.608Z,100722.97
2018-05-09T12:46:36.741Z,100715.14
2018-05-09T12:49:04.940Z,100713.20
2018-05-09T12:51:33.084Z,100710.95
2018-05-09T12:54:01.183Z,100707.30
2018-05-09T12:56:29.298Z,100713.94
2018-05-09T12:58:57.401Z,100709.84
2018-05-09T13:01:26.083Z,100706.80
2018-05-09T13:03:55.109Z,100708.23
2018-05-09T13:06:23.216Z,100710.33
2018-05-09T13:08:51.336Z,100712.17
2018-05-09T13:11:19.436Z,100701.41
2018-05-09T13:13:47.548Z,100702.69
2018-05-09T13:16:15.684Z,100696.20
2018-05-09T13:18:43.792Z,100698.77
2018-05-09T13:21:11.898Z,100694.90
2018-05-09T13:23:40.044Z,100699.53
2018-05-09T13:26:08.204Z,100692.69
2018-05-09T13:28:36.325Z,100697.53
2018-05-09T13:31:04.466Z,100697.38
2018-05-09T13:33:32.584Z,100696.23
2018-05-09T13:36:00.868Z,100685.65
2018-05-09T13:38:29.736Z,100691.92
2018-05-09T13:40:57.880Z,100694.66
2018-05-09T13:43:31.414Z,100687.89
2018-05-09T13:45:59.868Z,100691.47
2018-05-09T13:48:27.968Z,100686.44
2018-05-09T13:50:56.063Z,100680.53
2018-05-09T13:53:25.094Z,100678.98
2018-05-09T13:55:53.198Z,100678.16
2018-05-09T13:58:22.201Z,100681.13
2018-05-09T14:00:50.342Z,100684.67
2018-05-09T14:03:18.413Z,100694.44
2018-05-09T14:05:46.577Z,100677.46
2018-05-09T14:08:15.363Z,100682.16
2018-05-09T14:10:44.484Z,100687.04
2018-05-09T14:13:12.583Z,100691.13
2018-05-09T14:15:40.680Z,100687.38
2018-05-09T14:18:08.771Z,100691.77
2018-05-09T14:20:36.886Z,100690.44
2018-05-09T14:23:04.999Z,100687.89
2018-05-09T14:25:33.112Z,100687.63
2018-05-09T14:28:01.222Z,100685.77
2018-05-09T14:30:29.313Z,100690.29
2018-05-09T14:32:57.404Z,100683.02
2018-05-09T14:35:25.512Z,100689.25
2018-05-09T14:37:54.240Z,100687.07
2018-05-09T14:40:22.346Z,100682.86
2018-05-09T14:43:00.027Z,100683.61
2018-05-09T14:45:28.118Z,100674.22
2018-05-09T14:47:56.435Z,100675.55
2018-05-09T14:50:25.052Z,100683.52
2018-05-09T14:52:53.654Z,100677.41
2018-05-09T14:55:22.379Z,100684.26
2018-05-09T14:57:50.486Z,100683.69
2018-05-09T15:00:18.656Z,100675.53
2018-05-09T15:02:46.695Z,100677.65
2018-05-09T15:05:14.791Z,100675.39
2018-05-09T15:07:43.842Z,100672.94
2018-05-09T15:10:14.527Z,100670.56
2018-05-09T15:12:44.091Z,100678.63
2018-05-09T15:15:12.280Z,100666.67
2018-05-09T15:17:40.759Z,100666.70
2018-05-09T15:20:08.863Z,100662.27
2018-05-09T15:22:36.967Z,100671.27
2018-05-09T15:25:05.110Z,100662.05
2018-05-09T15:27:33.230Z,100668.80
2018-05-09T15:30:01.344Z,100666.27
2018-05-09T15:32:29.431Z,100664.58
2018-05-09T15:34:57.535Z,100664.86
2018-05-09T15:37:26.630Z,100657.16
2018-05-09T15:39:54.743Z,100675.94
2018-05-09T15:42:22.852Z,100670.27
2018-05-09T15:44:51.087Z,100666.31
2018-05-09T15:47:20.283Z,100665.69
2018-05-09T15:49:48.387Z,100667.44
2018-05-09T15:52:16.483Z,100672.83
2018-05-09T15:54:45.110Z,100674.37
2018-05-09T15:57:13.208Z,100677.06
2018-05-09T15:59:41.330Z,100672.38
2018-05-09T16:02:09.928Z,100669.55
2018-05-09T16:04:38.018Z,100664.52
2018-05-09T16:07:06.119Z,100670.39
2018-05-09T16:09:39.662Z,100673.64
2018-05-09T16:12:07.758Z,100664.14
2018-05-09T16:14:35.854Z,100677.39
2018-05-09T16:17:03.981Z,100670.21
2018-05-09T16:19:32.161Z,100665.88
2018-05-09T16:22:00.201Z,100662.23
2018-05-09T16:24:28.304Z,100654.63
2018-05-09T16:26:56.406Z,100654.25
2018-05-09T16:29:24.527Z,100659.04
2018-05-09T16:31:52.620Z,100666.22
2018-05-09T16:34:20.992Z,100660.54
2018-05-09T16:36:50.095Z,100656.73
2018-05-09T16:39:18.185Z,100659.88
2018-05-09T16:41:46.306Z,100663.97
2018-05-09T16:44:14.420Z,100661.58
2018-05-09T16:46:42.530Z,100661.89
2018-05-09T16:49:10.644Z,100665.41
2018-05-09T16:51:38.769Z,100660.43
2018-05-09T16:54:06.870Z,100668.38
2018-05-09T16:56:35.076Z,100669.67
2018-05-09T16:59:03.195Z,100668.66
2018-05-09T17:01:31.395Z,100675.98
2018-05-09T17:03:59.440Z,100670.24
2018-05-09T17:06:33.050Z,100677.97
2018-05-09T17:09:06.748Z,100671.76
2018-05-09T17:11:35.170Z,100672.81
2018-05-09T17:14:03.252Z,100675.67
2018-05-09T17:16:31.375Z,100674.09
2018-05-09T17:18:59.481Z,100681.77
2018-05-09T17:21:39.412Z,100676.20
2018-05-09T17:24:07.516Z,100667.80
2018-05-09T17:26:35.671Z,100668.51
2018-05-09T17:29:03.906Z,100674.59
2018-05-09T17:31:31.996Z,100674.45
2018-05-09T17:34:00.111Z,100671.31
2018-05-09T17:36:28.272Z,100673.81
2018-05-09T17:38:56.337Z,100673.98
2018-05-09T17:41:24.689Z,100674.91
2018-05-09T17:43:52.836Z,100673.39
2018-05-09T17:46:20.924Z,100679.36
2018-05-09T17:48:49.012Z,100664.83
2018-05-09T17:51:17.169Z,100667.06
2018-05-09T17:53:45.272Z,100669.91
2018-05-09T17:56:13.851Z,100675.93
2018-05-09T17:58:42.045Z,100674.63
2018-05-09T18:01:10.113Z,100678.06
2018-05-09T18:03:38.177Z,100667.12
2018-05-09T18:06:06.287Z,100665.19
2018-05-09T18:08:34.414Z,100675.45
2018-05-09T18:11:02.487Z,100677.87
2018-05-09T18:13:30.611Z,100672.39
2018-05-09T18:15:58.712Z,100669.78
2018-05-09T18:18:26.819Z,100666.51
2018-05-09T18:20:55.264Z,100661.89
2018-05-09T18:23:23.364Z,100666.56
2018-05-09T18:25:51.466Z,100663.80
2018-05-09T18:28:19.569Z,100671.25
2018-05-09T18:30:47.675Z,100670.07
2018-05-09T18:33:15.789Z,100667.02
2018-05-09T18:35:43.895Z,100676.07
2018-05-09T18:38:12.219Z,100669.94
2018-05-09T18:40:40.312Z,100668.08
2018-05-09T18:43:08.432Z,100670.05
2018-05-09T18:45:36.640Z,100666.75
2018-05-09T18:48:10.433Z,100664.91
2018-05-09T18:50:38.522Z,100673.59
2018-05-09T18:53:06.634Z,100672.92
2018-05-09T18:55:34.790Z,100679.36
2018-05-09T18:58:02.932Z,100684.52
2018-05-09T19:00:31.092Z,100686.84
2018-05-09T19:02:59.191Z,100686.20
2018-05-09T19:05:27.320Z,100687.23
2018-05-09T19:07:56.157Z,100691.30
2018-05-09T19:10:24.261Z,100694.56
2018-05-09T19:12:52.386Z,100701.14
2018-05-09T19:15:20.502Z,100699.66
2018-05-09T19:17:48.599Z,100703.05
2018-05-09T19:20:17.083Z,100708.66
2018-05-09T19:22:45.220Z,100708.69
2018-05-09T19:25:13.306Z,100706.43
2018-05-09T19:27:41.405Z,100705.25
2018-05-09T19:30:09.506Z,100701.86
2018-05-09T19:32:37.623Z,100709.36
2018-05-09T19:35:05.730Z,100714.48
2018-05-09T19:37:34.445Z,100706.88
2018-05-09T19:40:02.539Z,100707.92
2018-05-09T19:42:31.179Z,100709.66
2018-05-09T19:44:59.580Z,100703.52
2018-05-09T19:47:27.693Z,100704.36
2018-05-09T19:49:56.354Z,100710.07
2018-05-09T19:52:24.460Z,100710.30
2018-05-09T19:54:52.606Z,100711.19
2018-05-09T19:57:20.730Z,100719.50
2018-05-09T19:59:49.120Z,100720.59
2018-05-09T20:02:17.214Z,100722.39
2018-05-09T20:04:45.372Z,100729.58
2018-05-09T20:07:13.503Z,100726.39
2018-05-09T20:09:47.077Z,100734.97
2018-05-09T20:12:15.194Z,100735.15
2018-05-09T20:14:43.439Z,100732.48
2018-05-09T20:17:11.613Z,100732.69
2018-05-09T20:19:39.757Z,100732.86
2018-05-09T20:22:13.308Z,100725.81
2018-05-09T20:24:47.157Z,100728.14
2018-05-09T20:27:15.275Z,100724.48
2018-05-09T20:29:44.681Z,100729.52
2018-05-09T20:32:25.037Z,100727.59
2018-05-09T20:34:53.151Z,100724.20
2018-05-09T20:37:21.252Z,100723.95
2018-05-09T20:39:49.395Z,100725.27
2018-05-09T20:42:18.412Z,100729.80
2018-05-09T20:44:46.514Z,100732.48
2018-05-09T20:47:14.624Z,100734.88
2018-05-09T20:49:42.997Z,100734.62
2018-05-09T20:52:11.467Z,100737.63
2018-05-09T20:54:39.569Z,100731.64
2018-05-09T20:57:07.704Z,100743.38
2018-05-09T20:59:35.805Z,100740.36
2018-05-09T21:02:03.923Z,100740.45
2018-05-09T21:04:32.333Z,100748.17
2018-05-09T21:07:00.719Z,100745.94
2018-05-09T21:09:28.907Z,100751.69
2018-05-09T21:12:08.782Z,100755.45
2018-05-09T21:14:36.978Z,100756.56
2018-05-09T21:17:05.024Z,100755.48
2018-05-09T21:19:33.140Z,100755.00
2018-05-09T21:22:01.264Z,100756.48
2018-05-09T21:24:29.413Z,100756.90
2018-05-09T21:26:58.295Z,100760.55
2018-05-09T21:29:26.435Z,100763.77
2018-05-09T21:31:54.533Z,100760.91
2018-05-09T21:34:22.717Z,100763.81
2018-05-09T21:36:50.839Z,100769.63
2018-05-09T21:39:19.272Z,100763.14
2018-05-09T21:41:47.368Z,100764.75
2018-05-09T21:44:15.486Z,100758.39
2018-05-09T21:46:43.593Z,100756.07
2018-05-09T21:49:11.684Z,100755.20
2018-05-09T21:51:39.909Z,100751.58
2018-05-09T21:54:07.996Z,100753.61
2018-05-09T22:09:36.179Z,100738.63
2018-05-09T22:12:05.320Z,100737.23
2018-05-09T22:14:33.403Z,100743.37
2018-05-09T22:17:01.523Z,100751.16
2018-05-09T22:19:30.687Z,100753.67
2018-05-09T22:21:58.788Z,100748.25
2018-05-09T22:24:26.887Z,100752.97
2018-05-09T22:26:55.010Z,100751.35
2018-05-09T22:29:23.172Z,100752.62
2018-05-09T22:31:51.315Z,100748.67
2018-05-09T22:34:19.436Z,100746.63
2018-05-09T22:36:47.523Z,100750.86
2018-05-09T22:39:16.411Z,100741.75
2018-05-09T22:41:44.507Z,100739.34
2018-05-09T22:44:12.599Z,100739.20
2018-05-09T22:46:40.751Z,100730.75
2018-05-09T22:49:08.847Z,100732.86
2018-05-09T22:51:36.963Z,100733.47
2018-05-09T22:54:06.039Z,100731.31
2018-05-09T22:56:34.133Z,100736.15
2018-05-09T22:59:02.215Z,100733.89
2018-05-09T23:01:30.363Z,100740.17
2018-05-09T23:03:58.491Z,100738.36
2018-05-09T23:06:26.587Z,100737.66
2018-05-09T23:08:54.729Z,100742.03
2018-05-09T23:11:22.842Z,100744.59
2018-05-09T23:13:50.978Z,100744.30
2018-05-09T23:16:19.082Z,100738.58
2018-05-09T23:18:47.177Z,100733.36
2018-05-09T23:21:15.267Z,100726.80
2018-05-09T23:23:43.535Z,100722.28
2018-05-09T23:26:11.631Z,100714.81
2018-05-09T23:28:39.771Z,100714.62
2018-05-09T23:31:07.886Z,100711.34
2018-05-09T23:33:36.705Z,100702.98
2018-05-09T23:36:04.824Z,100701.94
2018-05-09T23:38:32.932Z,100698.92
2018-05-09T23:41:01.025Z,100695.72
2018-05-09T23:43:29.133Z,100695.01
2018-05-09T23:45:57.223Z,100703.38
2018-05-09T23:48:25.622Z,100701.98
2018-05-09T23:50:53.699Z,100709.00
2018-05-09T23:53:21.843Z,100706.25
2018-05-09T23:55:50.033Z,100696.20
2018-05-09T23:58:18.055Z,100701.37
